sensor_id;sensor_type;location;lat;lon;timestamp;pressure;altitude;pressure_sealevel;temperature;humidity
10510;BME280;5303;53.266;10.410;2023-05-02T00:00:11;101261.81;;;11.19;58.20
10510;BME280;5303;53.266;10.410;2023-05-02T00:02:37;101268.88;;;11.14;58.44
10510;BME280;5303;53.266;10.410;2023-05-02T00:05:03;101271.50;;;11.14;58.36
10510;BME280;5303;53.266;10.410;2023-05-02T00:07:29;101260.91;;;11.12;58.82
10510;BME280;5303;53.266;10.410;2023-05-02T00:09:54;101261.78;;;11.13;58.88
10510;BME280;5303;53.266;10.410;2023-05-02T00:12:20;101260.03;;;11.13;59.12
10510;BME280;5303;53.266;10.410;2023-05-02T00:14:45;101257.41;;;11.16;59.48
10510;BME280;5303;53.266;10.410;2023-05-02T00:17:20;101258.31;;;11.17;59.58
10510;BME280;5303;53.266;10.410;2023-05-02T00:19:45;101260.91;;;11.11;60.20
10510;BME280;5303;53.266;10.410;2023-05-02T00:22:11;101256.50;;;11.11;61.34
10510;BME280;5303;53.266;10.410;2023-05-02T00:24:36;101255.63;;;11.12;61.03
10510;BME280;5303;53.266;10.410;2023-05-02T00:27:02;101256.50;;;11.10;61.24
10510;BME280;5303;53.266;10.410;2023-05-02T00:29:27;101263.59;;;11.17;61.81
10510;BME280;5303;53.266;10.410;2023-05-02T00:31:53;101264.47;;;11.17;62.20
10510;BME280;5303;53.266;10.410;2023-05-02T00:34:18;101267.06;;;11.10;63.11
10510;BME280;5303;53.266;10.410;2023-05-02T00:36:43;101266.19;;;11.09;63.97
10510;BME280;5303;53.266;10.410;2023-05-02T00:39:09;101264.44;;;11.10;64.77
10510;BME280;5303;53.266;10.410;2023-05-02T00:41:35;101267.94;;;11.00;65.68
10510;BME280;5303;53.266;10.410;2023-05-02T00:44:00;101263.50;;;10.92;66.25
10510;BME280;5303;53.266;10.410;2023-05-02T00:46:26;101272.31;;;10.88;66.73
10510;BME280;5303;53.266;10.410;2023-05-02T00:48:51;101270.56;;;10.84;66.79
10510;BME280;5303;53.266;10.410;2023-05-02T00:51:16;101278.44;;;10.81;67.42
10510;BME280;5303;53.266;10.410;2023-05-02T00:53:42;101272.31;;;10.91;67.22
10510;BME280;5303;53.266;10.410;2023-05-02T00:56:07;101275.81;;;10.87;67.13
10510;BME280;5303;53.266;10.410;2023-05-02T00:58:34;101268.78;;;10.92;67.50
10510;BME280;5303;53.266;10.410;2023-05-02T01:01:09;101273.22;;;10.93;68.20
10510;BME280;5303;53.266;10.410;2023-05-02T01:09:12;101270.47;;;10.69;69.62
10510;BME280;5303;53.266;10.410;2023-05-02T01:14:17;101269.59;;;10.65;69.22
10510;BME280;5303;53.266;10.410;2023-05-02T01:16:45;101274.00;;;10.68;69.46
10510;BME280;5303;53.266;10.410;2023-05-02T01:19:38;101259.84;;;10.52;69.82
10510;BME280;5303;53.266;10.410;2023-05-02T01:22:10;101271.25;;;10.44;70.62
10510;BME280;5303;53.266;10.410;2023-05-02T01:24:42;101282.69;;;10.46;70.82
10510;BME280;5303;53.266;10.410;2023-05-02T01:29:57;101280.91;;;10.42;72.05
10510;BME280;5303;53.266;10.410;2023-05-02T01:32:25;101280.91;;;10.38;72.24
10510;BME280;5303;53.266;10.410;2023-05-02T01:34:52;101292.31;;;10.33;73.15
10510;BME280;5303;53.266;10.410;2023-05-02T01:37:21;101290.56;;;10.35;73.55
10510;BME280;5303;53.266;10.410;2023-05-02T01:39:48;101284.34;;;10.27;73.57
10510;BME280;5303;53.266;10.410;2023-05-02T01:42:15;101287.00;;;10.30;73.92
10510;BME280;5303;53.266;10.410;2023-05-02T01:44:42;101285.28;;;10.35;74.69
10510;BME280;5303;53.266;10.410;2023-05-02T01:47:09;101287.88;;;10.27;74.81
10510;BME280;5303;53.266;10.410;2023-05-02T01:49:35;101288.72;;;10.23;74.89
10510;BME280;5303;53.266;10.410;2023-05-02T01:52:07;101287.03;;;10.33;74.75
10510;BME280;5303;53.266;10.410;2023-05-02T01:54:36;101291.38;;;10.23;75.07
10510;BME280;5303;53.266;10.410;2023-05-02T01:57:04;101287.78;;;10.17;75.42
10510;BME280;5303;53.266;10.410;2023-05-02T01:59:32;101285.16;;;10.20;75.92
10510;BME280;5303;53.266;10.410;2023-05-02T02:01:58;101287.78;;;10.18;75.96
10510;BME280;5303;53.266;10.410;2023-05-02T02:04:26;101294.72;;;10.07;76.05
10510;BME280;5303;53.266;10.410;2023-05-02T02:06:58;101289.41;;;10.01;76.18
10510;BME280;5303;53.266;10.410;2023-05-02T02:09:25;101296.47;;;10.05;76.54
10510;BME280;5303;53.266;10.410;2023-05-02T02:12:01;101292.97;;;10.07;76.25
10510;BME280;5303;53.266;10.410;2023-05-02T02:14:35;101292.91;;;10.00;76.75
10510;BME280;5303;53.266;10.410;2023-05-02T02:17:05;101300.81;;;10.00;76.46
10510;BME280;5303;53.266;10.410;2023-05-02T02:19:34;101300.81;;;9.97;76.43
10510;BME280;5303;53.266;10.410;2023-05-02T02:22:02;101297.28;;;9.95;76.99
10510;BME280;5303;53.266;10.410;2023-05-02T02:24:29;101292.03;;;9.96;77.05
10510;BME280;5303;53.266;10.410;2023-05-02T02:26:55;101296.47;;;10.02;77.03
10510;BME280;5303;53.266;10.410;2023-05-02T02:29:20;101301.75;;;10.02;77.04
10510;BME280;5303;53.266;10.410;2023-05-02T02:31:45;101300.88;;;10.04;77.01
10510;BME280;5303;53.266;10.410;2023-05-02T02:34:11;101303.53;;;10.09;76.95
10510;BME280;5303;53.266;10.410;2023-05-02T02:37:02;101305.28;;;10.10;76.46
10510;BME280;5303;53.266;10.410;2023-05-02T02:45:49;101316.06;;;10.39;75.77
10510;BME280;5303;53.266;10.410;2023-05-02T02:48:33;101314.28;;;10.36;76.48
10510;BME280;5303;53.266;10.410;2023-05-02T02:53:45;101323.97;;;10.41;76.89
10510;BME280;5303;53.266;10.410;2023-05-02T02:56:22;101324.94;;;10.53;76.23
10510;BME280;5303;53.266;10.410;2023-05-02T02:59:03;101324.91;;;10.50;76.55
10510;BME280;5303;53.266;10.410;2023-05-02T03:01:31;101324.06;;;10.54;76.89
10510;BME280;5303;53.266;10.410;2023-05-02T03:03:57;101329.34;;;10.54;77.17
10510;BME280;5303;53.266;10.410;2023-05-02T03:06:23;101338.97;;;10.48;77.08
10510;BME280;5303;53.266;10.410;2023-05-02T03:08:49;101336.34;;;10.49;77.53
10510;BME280;5303;53.266;10.410;2023-05-02T03:11:15;101343.38;;;10.52;77.73
10510;BME280;5303;53.266;10.410;2023-05-02T03:13:40;101338.97;;;10.51;78.13
10510;BME280;5303;53.266;10.410;2023-05-02T03:16:30;101348.63;;;10.46;78.54
10510;BME280;5303;53.266;10.410;2023-05-02T03:18:56;101356.53;;;10.43;79.23
10510;BME280;5303;53.266;10.410;2023-05-02T03:21:22;101361.81;;;10.46;80.30
10510;BME280;5303;53.266;10.410;2023-05-02T03:23:47;101363.47;;;10.31;80.33
10510;BME280;5303;53.266;10.410;2023-05-02T03:26:12;101365.22;;;10.29;81.18
10510;BME280;5303;53.266;10.410;2023-05-02T03:28:38;101369.59;;;10.23;81.37
10510;BME280;5303;53.266;10.410;2023-05-02T03:31:03;101369.53;;;10.21;81.83
10510;BME280;5303;53.266;10.410;2023-05-02T03:33:28;101366.97;;;10.30;81.98
10510;BME280;5303;53.266;10.410;2023-05-02T03:35:53;101365.22;;;10.29;81.78
10510;BME280;5303;53.266;10.410;2023-05-02T03:38:19;101374.06;;;10.33;82.04
10510;BME280;5303;53.266;10.410;2023-05-02T03:40:44;101375.75;;;10.23;82.25
10510;BME280;5303;53.266;10.410;2023-05-02T03:43:09;101375.66;;;10.17;82.05
10510;BME280;5303;53.266;10.410;2023-05-02T03:45:35;101379.97;;;10.09;82.83
10510;BME280;5303;53.266;10.410;2023-05-02T03:48:01;101382.69;;;10.15;83.09
10510;BME280;5303;53.266;10.410;2023-05-02T03:50:26;101387.06;;;10.13;82.85
10510;BME280;5303;53.266;10.410;2023-05-02T03:52:51;101387.78;;;9.97;83.24
10510;BME280;5303;53.266;10.410;2023-05-02T03:55:17;101400.13;;;10.01;82.43
10510;BME280;5303;53.266;10.410;2023-05-02T03:57:42;101407.91;;;9.86;81.18
10510;BME280;5303;53.266;10.410;2023-05-02T04:00:08;101411.91;;;9.50;82.26
10510;BME280;5303;53.266;10.410;2023-05-02T04:02:33;101431.09;;;9.40;82.97
10510;BME280;5303;53.266;10.410;2023-05-02T04:04:59;101441.47;;;9.24;83.11
10510;BME280;5303;53.266;10.410;2023-05-02T04:07:24;101446.56;;;9.09;83.30
10510;BME280;5303;53.266;10.410;2023-05-02T04:09:50;101447.16;;;8.90;83.11
10510;BME280;5303;53.266;10.410;2023-05-02T04:12:18;101462.72;;;8.75;83.64
10510;BME280;5303;53.266;10.410;2023-05-02T04:14:44;101467.91;;;8.69;83.98
10510;BME280;5303;53.266;10.410;2023-05-02T04:17:09;101472.09;;;8.57;84.29
10510;BME280;5303;53.266;10.410;2023-05-02T04:19:34;101487.69;;;8.45;83.69
10510;BME280;5303;53.266;10.410;2023-05-02T04:22:01;101498.91;;;8.35;84.28
10510;BME280;5303;53.266;10.410;2023-05-02T04:24:26;101501.31;;;8.26;84.37
10510;BME280;5303;53.266;10.410;2023-05-02T04:26:52;101501.28;;;8.23;82.92
10510;BME280;5303;53.266;10.410;2023-05-02T04:29:17;101510.06;;;8.25;82.98
10510;BME280;5303;53.266;10.410;2023-05-02T04:31:42;101508.22;;;8.18;83.00
10510;BME280;5303;53.266;10.410;2023-05-02T04:34:08;101515.25;;;8.19;82.91
10510;BME280;5303;53.266;10.410;2023-05-02T04:36:33;101518.78;;;8.21;82.67
10510;BME280;5303;53.266;10.410;2023-05-02T04:38:59;101519.63;;;8.20;82.66
10510;BME280;5303;53.266;10.410;2023-05-02T04:41:24;101530.06;;;8.17;82.45
10510;BME280;5303;53.266;10.410;2023-05-02T04:43:50;101541.47;;;8.17;82.71
10510;BME280;5303;53.266;10.410;2023-05-02T04:46:16;101545.63;;;8.04;80.40
10510;BME280;5303;53.266;10.410;2023-05-02T04:48:42;101556.63;;;7.85;79.54
10510;BME280;5303;53.266;10.410;2023-05-02T04:51:08;101559.16;;;7.79;78.83
10510;BME280;5303;53.266;10.410;2023-05-02T04:53:34;101561.78;;;7.79;78.30
10510;BME280;5303;53.266;10.410;2023-05-02T04:55:59;101581.13;;;7.84;77.92
10510;BME280;5303;53.266;10.410;2023-05-02T04:58:25;101585.31;;;7.76;77.13
10510;BME280;5303;53.266;10.410;2023-05-02T05:00:50;101583.53;;;7.73;76.43
10510;BME280;5303;53.266;10.410;2023-05-02T05:03:17;101600.84;;;7.64;76.40
10510;BME280;5303;53.266;10.410;2023-05-02T05:05:42;101603.47;;;7.64;76.31
10510;BME280;5303;53.266;10.410;2023-05-02T05:08:07;101601.84;;;7.69;76.16
10510;BME280;5303;53.266;10.410;2023-05-02T05:10:33;101605.22;;;7.65;75.65
10510;BME280;5303;53.266;10.410;2023-05-02T05:12:58;101622.94;;;7.73;74.82
10510;BME280;5303;53.266;10.410;2023-05-02T05:15:23;101621.13;;;7.71;74.08
10510;BME280;5303;53.266;10.410;2023-05-02T05:17:50;101625.34;;;7.64;73.37
10510;BME280;5303;53.266;10.410;2023-05-02T05:20:15;101626.22;;;7.65;73.39
10510;BME280;5303;53.266;10.410;2023-05-02T05:22:41;101645.50;;;7.65;73.38
10510;BME280;5303;53.266;10.410;2023-05-02T05:25:07;101637.63;;;7.65;71.39
10510;BME280;5303;53.266;10.410;2023-05-02T05:27:33;101640.22;;;7.64;71.79
10510;BME280;5303;53.266;10.410;2023-05-02T05:29:59;101646.66;;;7.76;70.98
10510;BME280;5303;53.266;10.410;2023-05-02T05:32:24;101643.19;;;7.79;70.30
10510;BME280;5303;53.266;10.410;2023-05-02T05:34:52;101645.00;;;7.82;69.26
10510;BME280;5303;53.266;10.410;2023-05-02T05:37:18;101650.34;;;7.86;68.72
10510;BME280;5303;53.266;10.410;2023-05-02T05:39:44;101659.94;;;7.84;68.25
10510;BME280;5303;53.266;10.410;2023-05-02T05:42:09;101662.16;;;8.06;68.33
10510;BME280;5303;53.266;10.410;2023-05-02T05:44:35;101665.97;;;8.21;67.38
10510;BME280;5303;53.266;10.410;2023-05-02T05:47:01;101671.25;;;8.22;65.70
10510;BME280;5303;53.266;10.410;2023-05-02T05:49:26;101678.38;;;8.28;65.81
10510;BME280;5303;53.266;10.410;2023-05-02T05:51:51;101664.28;;;8.24;65.31
10510;BME280;5303;53.266;10.410;2023-05-02T05:54:17;101676.81;;;8.36;66.23
10510;BME280;5303;53.266;10.410;2023-05-02T05:56:43;101681.13;;;8.34;64.46
10510;BME280;5303;53.266;10.410;2023-05-02T05:59:08;101683.97;;;8.43;64.98
10510;BME280;5303;53.266;10.410;2023-05-02T06:01:34;101684.56;;;8.30;64.90
10510;BME280;5303;53.266;10.410;2023-05-02T06:04:00;101695.06;;;8.30;65.19
10510;BME280;5303;53.266;10.410;2023-05-02T06:06:27;101700.38;;;8.33;65.26
10510;BME280;5303;53.266;10.410;2023-05-02T06:08:52;101703.09;;;8.36;64.65
10510;BME280;5303;53.266;10.410;2023-05-02T06:11:18;101710.66;;;8.21;64.65
10510;BME280;5303;53.266;10.410;2023-05-02T06:13:43;101714.84;;;8.13;64.60
10510;BME280;5303;53.266;10.410;2023-05-02T06:16:08;101714.69;;;8.06;65.41
10510;BME280;5303;53.266;10.410;2023-05-02T06:18:34;101719.94;;;8.05;64.93
10510;BME280;5303;53.266;10.410;2023-05-02T06:21:03;101717.25;;;8.02;65.03
10510;BME280;5303;53.266;10.410;2023-05-02T06:23:29;101723.53;;;8.08;64.89
10510;BME280;5303;53.266;10.410;2023-05-02T06:25:58;101735.66;;;8.03;64.08
10510;BME280;5303;53.266;10.410;2023-05-02T06:28:23;101738.25;;;8.00;64.14
10510;BME280;5303;53.266;10.410;2023-05-02T06:31:02;101744.25;;;7.96;64.06
10510;BME280;5303;53.266;10.410;2023-05-02T06:33:29;101752.88;;;7.89;63.88
10510;BME280;5303;53.266;10.410;2023-05-02T06:35:55;101749.63;;;8.01;64.31
10510;BME280;5303;53.266;10.410;2023-05-02T06:38:21;101756.69;;;8.03;63.88
10510;BME280;5303;53.266;10.410;2023-05-02T06:40:47;101761.03;;;8.01;63.52
10510;BME280;5303;53.266;10.410;2023-05-02T06:43:12;101766.16;;;7.97;63.19
10510;BME280;5303;53.266;10.410;2023-05-02T06:45:38;101771.38;;;7.95;62.86
10510;BME280;5303;53.266;10.410;2023-05-02T06:48:04;101782.75;;;7.94;62.59
10510;BME280;5303;53.266;10.410;2023-05-02T06:50:30;101783.34;;;7.83;62.99
10510;BME280;5303;53.266;10.410;2023-05-02T06:52:55;101792.81;;;7.76;62.73
10510;BME280;5303;53.266;10.410;2023-05-02T06:55:21;101800.50;;;7.67;63.66
10510;BME280;5303;53.266;10.410;2023-05-02T06:57:47;101801.44;;;7.69;63.41
10510;BME280;5303;53.266;10.410;2023-05-02T07:00:15;101804.91;;;7.68;64.05
10510;BME280;5303;53.266;10.410;2023-05-02T07:02:40;101805.78;;;7.68;62.62
10510;BME280;5303;53.266;10.410;2023-05-02T07:05:06;101818.66;;;7.58;62.98
10510;BME280;5303;53.266;10.410;2023-05-02T07:07:31;101825.81;;;7.65;62.33
10510;BME280;5303;53.266;10.410;2023-05-02T07:09:56;101831.66;;;7.53;61.69
10510;BME280;5303;53.266;10.410;2023-05-02T07:12:21;101825.44;;;7.49;61.83
10510;BME280;5303;53.266;10.410;2023-05-02T07:14:47;101832.44;;;7.49;62.22
10510;BME280;5303;53.266;10.410;2023-05-02T07:17:12;101844.56;;;7.45;62.71
10510;BME280;5303;53.266;10.410;2023-05-02T07:19:37;101848.91;;;7.43;60.97
10510;BME280;5303;53.266;10.410;2023-05-02T07:22:03;101848.03;;;7.44;61.10
10510;BME280;5303;53.266;10.410;2023-05-02T07:24:28;101854.31;;;7.49;60.75
10510;BME280;5303;53.266;10.410;2023-05-02T07:26:54;101854.59;;;7.60;59.91
10510;BME280;5303;53.266;10.410;2023-05-02T07:29:19;101857.25;;;7.62;59.91
10510;BME280;5303;53.266;10.410;2023-05-02T07:31:44;101866.06;;;7.64;58.29
10510;BME280;5303;53.266;10.410;2023-05-02T07:34:10;101869.59;;;7.66;58.04
10510;BME280;5303;53.266;10.410;2023-05-02T07:36:35;101858.44;;;7.74;57.61
10510;BME280;5303;53.266;10.410;2023-05-02T07:39:00;101859.56;;;7.84;57.75
10510;BME280;5303;53.266;10.410;2023-05-02T07:41:25;101863.00;;;7.80;57.78
10510;BME280;5303;53.266;10.410;2023-05-02T07:43:51;101855.44;;;7.94;57.61
10510;BME280;5303;53.266;10.410;2023-05-02T07:46:16;101870.38;;;7.96;57.95
10510;BME280;5303;53.266;10.410;2023-05-02T07:48:41;101875.75;;;8.01;57.82
10510;BME280;5303;53.266;10.410;2023-05-02T07:51:10;101877.44;;;7.97;57.48
10510;BME280;5303;53.266;10.410;2023-05-02T07:53:35;101887.16;;;8.01;56.95
10510;BME280;5303;53.266;10.410;2023-05-02T07:56:04;101879.13;;;7.95;57.24
10510;BME280;5303;53.266;10.410;2023-05-02T07:58:31;101880.81;;;7.93;56.90
10510;BME280;5303;53.266;10.410;2023-05-02T08:00:56;101896.28;;;7.81;55.53
10510;BME280;5303;53.266;10.410;2023-05-02T08:03:22;101903.19;;;7.77;55.98
10510;BME280;5303;53.266;10.410;2023-05-02T08:05:47;101900.00;;;7.89;55.07
10510;BME280;5303;53.266;10.410;2023-05-02T08:08:13;101895.94;;;8.02;55.67
10510;BME280;5303;53.266;10.410;2023-05-02T08:10:38;101906.53;;;8.06;54.36
10510;BME280;5303;53.266;10.410;2023-05-02T08:13:03;101907.63;;;8.15;54.41
10510;BME280;5303;53.266;10.410;2023-05-02T08:15:28;101918.59;;;8.33;53.90
10510;BME280;5303;53.266;10.410;2023-05-02T08:17:54;101902.19;;;8.42;54.35
10510;BME280;5303;53.266;10.410;2023-05-02T08:20:20;101902.22;;;8.43;52.26
10510;BME280;5303;53.266;10.410;2023-05-02T08:22:46;101903.13;;;8.45;53.22
10510;BME280;5303;53.266;10.410;2023-05-02T08:25:12;101917.06;;;8.41;52.15
10510;BME280;5303;53.266;10.410;2023-05-02T08:27:37;101911.28;;;8.57;51.86
10510;BME280;5303;53.266;10.410;2023-05-02T08:30:03;101922.75;;;8.59;50.81
10510;BME280;5303;53.266;10.410;2023-05-02T08:32:28;101917.53;;;8.61;50.14
10510;BME280;5303;53.266;10.410;2023-05-02T08:34:54;101929.03;;;8.66;49.44
10510;BME280;5303;53.266;10.410;2023-05-02T08:37:21;101925.41;;;8.61;49.39
10510;BME280;5303;53.266;10.410;2023-05-02T08:39:46;101931.03;;;8.78;49.90
10510;BME280;5303;53.266;10.410;2023-05-02T08:42:11;101932.22;;;8.90;48.98
10510;BME280;5303;53.266;10.410;2023-05-02T08:44:37;101929.34;;;8.80;49.23
10510;BME280;5303;53.266;10.410;2023-05-02T08:47:02;101932.03;;;8.83;49.71
10510;BME280;5303;53.266;10.410;2023-05-02T08:49:30;101937.13;;;9.16;48.99
10510;BME280;5303;53.266;10.410;2023-05-02T08:51:58;101942.81;;;9.36;47.56
10510;BME280;5303;53.266;10.410;2023-05-02T08:54:24;101952.63;;;9.44;49.50
10510;BME280;5303;53.266;10.410;2023-05-02T08:56:52;101950.50;;;9.27;49.04
10510;BME280;5303;53.266;10.410;2023-05-02T08:59:18;101957.56;;;9.28;49.26
10510;BME280;5303;53.266;10.410;2023-05-02T09:01:44;101958.25;;;9.19;49.15
10510;BME280;5303;53.266;10.410;2023-05-02T09:04:12;101978.31;;;9.12;48.56
10510;BME280;5303;53.266;10.410;2023-05-02T09:06:38;101972.22;;;9.15;49.17
10510;BME280;5303;53.266;10.410;2023-05-02T09:09:04;101975.56;;;9.08;48.80
10510;BME280;5303;53.266;10.410;2023-05-02T09:11:29;101989.91;;;9.20;49.62
10510;BME280;5303;53.266;10.410;2023-05-02T09:13:54;102003.06;;;9.20;48.66
10510;BME280;5303;53.266;10.410;2023-05-02T09:16:21;101992.44;;;9.17;48.33
10510;BME280;5303;53.266;10.410;2023-05-02T09:18:49;101987.19;;;9.17;47.79
10510;BME280;5303;53.266;10.410;2023-05-02T09:21:19;101997.66;;;9.14;48.79
10510;BME280;5303;53.266;10.410;2023-05-02T09:23:47;102006.41;;;9.13;47.66
10510;BME280;5303;53.266;10.410;2023-05-02T09:28:44;102000.56;;;9.28;47.36
10510;BME280;5303;53.266;10.410;2023-05-02T09:31:17;102001.03;;;9.09;47.48
10510;BME280;5303;53.266;10.410;2023-05-02T09:33:43;102016.66;;;9.01;47.83
10510;BME280;5303;53.266;10.410;2023-05-02T09:36:14;102003.97;;;9.22;47.85
10510;BME280;5303;53.266;10.410;2023-05-02T09:38:41;101999.44;;;9.15;47.07
10510;BME280;5303;53.266;10.410;2023-05-02T09:41:07;102006.63;;;9.24;47.53
10510;BME280;5303;53.266;10.410;2023-05-02T09:43:32;102008.19;;;9.57;47.13
10510;BME280;5303;53.266;10.410;2023-05-02T09:46:02;102011.44;;;9.87;47.35
10510;BME280;5303;53.266;10.410;2023-05-02T09:48:29;102008.44;;;10.16;46.16
10510;BME280;5303;53.266;10.410;2023-05-02T09:50:55;102000.50;;;10.13;45.97
10510;BME280;5303;53.266;10.410;2023-05-02T09:53:23;102002.16;;;10.09;45.21
10510;BME280;5303;53.266;10.410;2023-05-02T09:55:58;102015.31;;;10.06;46.33
10510;BME280;5303;53.266;10.410;2023-05-02T09:58:23;102015.50;;;10.18;46.20
10510;BME280;5303;53.266;10.410;2023-05-02T10:00:49;102009.28;;;10.13;46.00
10510;BME280;5303;53.266;10.410;2023-05-02T10:03:17;102020.69;;;10.12;45.58
10510;BME280;5303;53.266;10.410;2023-05-02T10:05:44;102029.88;;;9.87;45.82
10510;BME280;5303;53.266;10.410;2023-05-02T10:08:11;102028.81;;;9.77;45.30
10510;BME280;5303;53.266;10.410;2023-05-02T10:10:49;102027.09;;;9.79;46.43
10510;BME280;5303;53.266;10.410;2023-05-02T10:13:16;102026.31;;;9.84;45.44
10510;BME280;5303;53.266;10.410;2023-05-02T10:15:43;102019.38;;;9.90;45.38
10510;BME280;5303;53.266;10.410;2023-05-02T10:18:14;102028.34;;;9.98;45.55
10510;BME280;5303;53.266;10.410;2023-05-02T10:20:55;102021.47;;;10.06;45.13
10510;BME280;5303;53.266;10.410;2023-05-02T10:23:24;102018.09;;;10.14;45.62
10510;BME280;5303;53.266;10.410;2023-05-02T10:25:50;102020.47;;;10.48;44.24
10510;BME280;5303;53.266;10.410;2023-05-02T10:28:16;102028.09;;;10.84;44.54
10510;BME280;5303;53.266;10.410;2023-05-02T10:30:42;102019.44;;;10.94;43.41
10510;BME280;5303;53.266;10.410;2023-05-02T10:33:07;102022.13;;;10.98;43.88
10510;BME280;5303;53.266;10.410;2023-05-02T10:35:35;102026.53;;;10.97;43.38
10510;BME280;5303;53.266;10.410;2023-05-02T10:38:00;102032.78;;;11.04;43.98
10510;BME280;5303;53.266;10.410;2023-05-02T10:40:26;102032.94;;;11.14;43.36
10510;BME280;5303;53.266;10.410;2023-05-02T10:42:52;102044.88;;;10.89;42.92
10510;BME280;5303;53.266;10.410;2023-05-02T10:45:34;102040.72;;;11.04;43.07
10510;BME280;5303;53.266;10.410;2023-05-02T10:48:19;102033.91;;;11.21;43.18
10510;BME280;5303;53.266;10.410;2023-05-02T10:50:51;102034.13;;;11.38;43.25
10510;BME280;5303;53.266;10.410;2023-05-02T10:56:11;102042.69;;;11.21;44.25
10510;BME280;5303;53.266;10.410;2023-05-02T10:58:37;102052.34;;;11.16;43.58
10510;BME280;5303;53.266;10.410;2023-05-02T11:03:54;102047.84;;;11.11;42.88
10510;BME280;5303;53.266;10.410;2023-05-02T11:06:21;102041.22;;;10.81;43.17
10510;BME280;5303;53.266;10.410;2023-05-02T11:08:46;102047.38;;;10.80;44.10
10510;BME280;5303;53.266;10.410;2023-05-02T11:11:45;102050.03;;;10.82;44.65
10510;BME280;5303;53.266;10.410;2023-05-02T11:17:06;102031.19;;;11.16;44.69
10510;BME280;5303;53.266;10.410;2023-05-02T11:24:41;102051.59;;;11.27;45.06
10510;BME280;5303;53.266;10.410;2023-05-02T11:35:18;102063.63;;;11.06;43.95
10510;BME280;5303;53.266;10.410;2023-05-02T11:37:54;102072.44;;;11.07;43.02
10510;BME280;5303;53.266;10.410;2023-05-02T11:40:20;102060.97;;;11.05;43.32
10510;BME280;5303;53.266;10.410;2023-05-02T11:42:46;102076.13;;;11.19;43.74
10510;BME280;5303;53.266;10.410;2023-05-02T11:45:12;102070.25;;;11.37;43.65
10510;BME280;5303;53.266;10.410;2023-05-02T11:47:38;102069.34;;;11.35;42.87
10510;BME280;5303;53.266;10.410;2023-05-02T11:50:04;102071.38;;;11.56;43.41
10510;BME280;5303;53.266;10.410;2023-05-02T11:52:36;102072.94;;;11.42;44.60
10510;BME280;5303;53.266;10.410;2023-05-02T11:55:01;102089.25;;;11.13;45.41
10510;BME280;5303;53.266;10.410;2023-05-02T11:57:26;102092.84;;;11.17;45.69
10510;BME280;5303;53.266;10.410;2023-05-02T11:59:54;102093.53;;;11.04;45.12
10510;BME280;5303;53.266;10.410;2023-05-02T12:02:34;102092.81;;;11.14;44.17
10510;BME280;5303;53.266;10.410;2023-05-02T12:05:01;102085.03;;;11.24;43.72
10510;BME280;5303;53.266;10.410;2023-05-02T12:07:39;102090.53;;;11.40;43.21
10510;BME280;5303;53.266;10.410;2023-05-02T12:10:06;102096.56;;;11.31;43.51
10510;BME280;5303;53.266;10.410;2023-05-02T12:12:32;102089.59;;;11.35;43.36
10510;BME280;5303;53.266;10.410;2023-05-02T12:15:03;102099.19;;;11.31;43.42
10510;BME280;5303;53.266;10.410;2023-05-02T12:17:29;102097.53;;;11.38;44.21
10510;BME280;5303;53.266;10.410;2023-05-02T12:19:55;102105.50;;;11.41;44.67
10510;BME280;5303;53.266;10.410;2023-05-02T12:22:22;102099.06;;;11.23;45.64
10510;BME280;5303;53.266;10.410;2023-05-02T12:24:48;102093.13;;;11.35;46.02
10510;BME280;5303;53.266;10.410;2023-05-02T12:27:15;102112.38;;;11.28;46.18
10510;BME280;5303;53.266;10.410;2023-05-02T12:29:45;102122.00;;;11.24;46.41
10510;BME280;5303;53.266;10.410;2023-05-02T12:32:11;102098.53;;;11.44;45.40
10510;BME280;5303;53.266;10.410;2023-05-02T12:34:38;102115.41;;;11.56;44.25
10510;BME280;5303;53.266;10.410;2023-05-02T12:37:04;102112.97;;;11.72;44.01
10510;BME280;5303;53.266;10.410;2023-05-02T12:39:40;102112.09;;;11.73;44.00
10510;BME280;5303;53.266;10.410;2023-05-02T12:44:40;102130.28;;;11.47;45.85
10510;BME280;5303;53.266;10.410;2023-05-02T12:47:06;102129.06;;;11.24;47.62
10510;BME280;5303;53.266;10.410;2023-05-02T12:49:32;102133.16;;;11.07;49.00
10510;BME280;5303;53.266;10.410;2023-05-02T12:52:11;102138.19;;;10.91;49.67
10510;BME280;5303;53.266;10.410;2023-05-02T12:54:37;102145.41;;;11.02;49.00
10510;BME280;5303;53.266;10.410;2023-05-02T12:57:02;102150.47;;;10.89;48.73
10510;BME280;5303;53.266;10.410;2023-05-02T12:59:29;102150.09;;;10.68;48.45
10510;BME280;5303;53.266;10.410;2023-05-02T13:01:54;102154.44;;;10.63;48.53
10510;BME280;5303;53.266;10.410;2023-05-02T13:04:19;102147.31;;;10.60;48.92
10510;BME280;5303;53.266;10.410;2023-05-02T13:06:45;102158.75;;;10.61;48.92
10510;BME280;5303;53.266;10.410;2023-05-02T13:09:10;102160.03;;;10.83;49.11
10510;BME280;5303;53.266;10.410;2023-05-02T13:11:35;102155.19;;;11.09;48.13
10510;BME280;5303;53.266;10.410;2023-05-02T13:14:01;102151.72;;;11.11;47.19
10510;BME280;5303;53.266;10.410;2023-05-02T13:16:29;102158.16;;;11.27;47.36
10510;BME280;5303;53.266;10.410;2023-05-02T13:18:55;102163.56;;;11.36;45.43
10510;BME280;5303;53.266;10.410;2023-05-02T13:21:21;102172.28;;;11.32;45.15
10510;BME280;5303;53.266;10.410;2023-05-02T13:23:46;102162.53;;;11.27;44.50
10510;BME280;5303;53.266;10.410;2023-05-02T13:26:14;102163.41;;;11.24;44.83
10510;BME280;5303;53.266;10.410;2023-05-02T13:28:40;102166.22;;;11.36;44.02
10510;BME280;5303;53.266;10.410;2023-05-02T13:31:05;102167.16;;;11.41;43.20
10510;BME280;5303;53.266;10.410;2023-05-02T13:33:31;102175.88;;;11.34;43.57
10510;BME280;5303;53.266;10.410;2023-05-02T13:35:56;102176.53;;;11.22;43.81
10510;BME280;5303;53.266;10.410;2023-05-02T13:38:21;102184.59;;;11.30;44.08
10510;BME280;5303;53.266;10.410;2023-05-02T13:40:46;102185.53;;;11.34;43.29